createdAt,value
2023-02-02T00:00:06.967Z,16.43
2023-02-02T00:01:08.849Z,16.87
2023-02-02T00:02:10.241Z,14.97
2023-02-02T00:03:11.651Z,13.83
2023-02-02T00:04:20.790Z,16.13
2023-02-02T00:05:22.493Z,13.20
2023-02-02T00:06:24.700Z,14.17
2023-02-02T00:07:25.995Z,15.60
2023-02-02T00:08:27.413Z,13.07
2023-02-02T00:09:30.057Z,13.43
2023-02-02T00:10:31.358Z,15.67
2023-02-02T00:11:32.698Z,15.83
2023-02-02T00:12:34.026Z,16.03
2023-02-02T00:13:35.416Z,17.13
2023-02-02T00:14:36.809Z,13.43
2023-02-02T00:15:38.554Z,20.63
2023-02-02T00:16:49.949Z,15.97
2023-02-02T00:17:51.289Z,17.47
2023-02-02T00:18:53.127Z,16.37
2023-02-02T00:19:54.487Z,17.10
2023-02-02T00:20:55.876Z,14.57
2023-02-02T00:21:57.459Z,14.20
2023-02-02T00:22:58.776Z,15.20
2023-02-02T00:24:00.168Z,15.00
2023-02-02T00:25:01.573Z,14.47
2023-02-02T00:26:02.914Z,13.40
2023-02-02T00:27:04.222Z,14.10
2023-02-02T00:28:05.577Z,13.77
2023-02-02T00:29:07.599Z,11.73
2023-02-02T00:30:09.221Z,20.73
2023-02-02T00:31:10.679Z,18.80
2023-02-02T00:32:12.001Z,17.07
2023-02-02T00:33:13.386Z,16.60
2023-02-02T00:34:15.304Z,16.07
2023-02-02T00:35:16.693Z,19.70
2023-02-02T00:36:18.517Z,25.27
2023-02-02T00:37:19.829Z,15.70
2023-02-02T00:38:21.279Z,14.03
2023-02-02T00:39:25.280Z,17.07
2023-02-02T00:40:26.693Z,16.50
2023-02-02T00:41:27.997Z,12.10
2023-02-02T00:42:29.371Z,20.47
2023-02-02T00:43:30.804Z,13.93
2023-02-02T00:44:50.433Z,14.77
2023-02-02T00:45:51.820Z,14.03
2023-02-02T00:46:53.220Z,13.70
2023-02-02T00:47:54.613Z,16.67
2023-02-02T00:48:55.913Z,12.13
2023-02-02T00:49:57.257Z,14.83
2023-02-02T00:50:58.556Z,18.13
2023-02-02T00:52:00.374Z,16.10
2023-02-02T00:53:01.746Z,15.33
2023-02-02T00:54:03.256Z,17.60
2023-02-02T00:55:04.920Z,20.10
2023-02-02T00:56:06.413Z,11.63
2023-02-02T00:57:07.728Z,13.40
2023-02-02T00:58:09.100Z,14.30
2023-02-02T00:59:10.506Z,16.87
2023-02-02T01:00:16.668Z,17.77
2023-02-02T01:01:21.033Z,18.63
2023-02-02T01:02:22.417Z,16.90
2023-02-02T01:03:23.767Z,12.90
2023-02-02T01:04:25.094Z,16.13
2023-02-02T01:05:26.738Z,20.07
2023-02-02T01:06:28.041Z,16.30
2023-02-02T01:07:29.396Z,17.10
2023-02-02T01:08:31.657Z,16.50
2023-02-02T01:09:32.993Z,17.57
2023-02-02T01:10:34.937Z,13.80
2023-02-02T01:11:36.445Z,16.20
2023-02-02T01:12:37.984Z,14.40
2023-02-02T01:13:40.104Z,13.83
2023-02-02T01:14:41.449Z,16.23
2023-02-02T01:15:42.730Z,17.03
2023-02-02T01:16:45.248Z,14.40
2023-02-02T01:17:46.729Z,13.17
2023-02-02T01:18:48.308Z,18.77
2023-02-02T01:19:49.612Z,15.83
2023-02-02T01:20:57.539Z,12.00
2023-02-02T01:21:58.877Z,17.77
2023-02-02T01:23:00.184Z,16.40
2023-02-02T01:24:01.521Z,14.20
2023-02-02T01:25:02.883Z,14.57
2023-02-02T01:26:06.624Z,17.10
2023-02-02T01:27:07.980Z,15.07
2023-02-02T01:28:09.334Z,12.37
2023-02-02T01:29:10.961Z,14.70
2023-02-02T01:30:12.583Z,15.33
2023-02-02T01:31:18.170Z,16.23
2023-02-02T01:32:19.614Z,13.23
2023-02-02T01:33:20.988Z,14.10
2023-02-02T01:34:22.507Z,10.50
2023-02-02T01:35:24.048Z,12.87
2023-02-02T01:36:25.575Z,17.60
2023-02-02T01:37:26.909Z,19.03
2023-02-02T01:38:28.262Z,20.93
2023-02-02T01:39:29.607Z,17.43
2023-02-02T01:40:30.962Z,16.77
2023-02-02T01:41:33.808Z,12.77
2023-02-02T01:42:35.958Z,10.90
2023-02-02T01:43:43.955Z,14.13
2023-02-02T01:44:51.247Z,16.03
2023-02-02T01:45:53.368Z,19.23
2023-02-02T01:46:54.685Z,16.53
2023-02-02T01:47:57.542Z,16.97
2023-02-02T01:49:19.114Z,16.90
2023-02-02T01:50:22.248Z,16.37
2023-02-02T01:51:25.514Z,17.23
2023-02-02T01:52:28.605Z,16.17
2023-02-02T01:53:30.599Z,16.83
2023-02-02T01:54:35.614Z,13.47
2023-02-02T01:55:38.434Z,16.37
2023-02-02T01:56:43.354Z,14.70
2023-02-02T01:57:59.318Z,17.83
2023-02-02T01:59:01.088Z,12.50
2023-02-02T02:00:03.628Z,15.47
2023-02-02T02:01:14.727Z,17.07
2023-02-02T02:02:16.416Z,17.23
2023-02-02T02:03:20.416Z,16.33
2023-02-02T02:04:22.845Z,17.37
2023-02-02T02:05:29.110Z,18.47
2023-02-02T02:06:30.742Z,17.87
2023-02-02T02:07:32.316Z,16.43
2023-02-02T02:08:41.850Z,12.73
2023-02-02T02:09:43.232Z,19.47
2023-02-02T02:10:44.697Z,18.63
2023-02-02T02:11:46.077Z,13.67
2023-02-02T02:12:48.001Z,20.03
2023-02-02T02:14:08.735Z,19.33
2023-02-02T02:15:28.779Z,23.87
2023-02-02T02:16:40.657Z,12.67
2023-02-02T02:17:51.169Z,16.40
2023-02-02T02:19:02.896Z,13.50
2023-02-02T02:20:29.582Z,18.93
2023-02-02T02:21:49.464Z,17.13
2023-02-02T02:23:44.371Z,15.30
2023-02-02T02:25:10.731Z,10.30
2023-02-02T02:26:33.927Z,14.23
2023-02-02T02:27:35.803Z,16.17
2023-02-02T02:28:37.490Z,14.83
2023-02-02T02:29:38.902Z,17.13
2023-02-02T02:30:59.299Z,18.87
2023-02-02T02:32:19.377Z,14.47
2023-02-02T02:33:26.255Z,18.57
2023-02-02T02:34:46.284Z,14.80
2023-02-02T02:35:55.853Z,14.53
2023-02-02T02:37:07.317Z,16.00
2023-02-02T02:38:17.996Z,15.17
2023-02-02T02:39:29.108Z,20.27
2023-02-02T02:40:40.526Z,14.20
2023-02-02T02:41:45.280Z,15.53
2023-02-02T02:42:49.914Z,13.80
2023-02-02T02:44:01.857Z,16.00
2023-02-02T02:45:15.720Z,15.63
2023-02-02T02:46:17.440Z,14.50
2023-02-02T02:47:19.564Z,15.73
2023-02-02T02:48:21.564Z,14.90
2023-02-02T02:49:23.963Z,18.30
2023-02-02T02:50:30.905Z,19.77
2023-02-02T02:51:49.844Z,16.10
2023-02-02T02:53:11.677Z,13.37
2023-02-02T02:54:15.248Z,17.67
2023-02-02T02:55:23.080Z,17.83
2023-02-02T02:56:40.524Z,19.60
2023-02-02T02:57:50.119Z,13.80
2023-02-02T02:59:11.997Z,15.93
2023-02-02T03:00:37.492Z,19.87
2023-02-02T03:02:02.363Z,13.70
2023-02-02T03:03:28.289Z,18.27
2023-02-02T03:04:39.863Z,17.83
2023-02-02T03:06:01.725Z,16.93
2023-02-02T03:07:13.614Z,13.93
2023-02-02T03:08:15.254Z,16.93
2023-02-02T03:09:20.167Z,14.37
2023-02-02T03:10:24.183Z,14.97
2023-02-02T03:11:26.313Z,15.47
2023-02-02T03:12:28.350Z,14.70
2023-02-02T03:13:33.586Z,12.27
2023-02-02T03:14:35.829Z,15.40
2023-02-02T03:15:40.390Z,18.50
2023-02-02T03:16:41.935Z,15.53
2023-02-02T03:17:53.569Z,13.47
2023-02-02T03:18:56.195Z,14.53
2023-02-02T03:20:07.941Z,15.87
2023-02-02T03:21:15.963Z,15.67
2023-02-02T03:22:20.109Z,18.03
2023-02-02T03:23:22.039Z,18.53
2023-02-02T03:24:23.935Z,12.17
2023-02-02T03:25:26.067Z,14.83
2023-02-02T03:26:28.364Z,14.70
2023-02-02T03:27:32.806Z,13.00
2023-02-02T03:28:34.753Z,17.17
2023-02-02T03:29:38.925Z,14.80
2023-02-02T03:30:47.103Z,11.93
2023-02-02T03:31:49.460Z,14.83
2023-02-02T03:33:02.875Z,18.40
2023-02-02T03:34:04.754Z,19.07
2023-02-02T03:35:06.878Z,14.60
2023-02-02T03:36:17.956Z,17.07
2023-02-02T03:37:20.101Z,14.20
2023-02-02T03:38:22.091Z,18.20
2023-02-02T03:39:29.260Z,11.77
2023-02-02T03:40:31.615Z,15.37
2023-02-02T03:41:36.233Z,16.80
2023-02-02T03:42:38.968Z,12.83
2023-02-02T03:43:40.665Z,16.53
2023-02-02T03:44:45.368Z,18.20
2023-02-02T03:46:00.212Z,18.93
2023-02-02T03:47:03.594Z,15.83
2023-02-02T03:48:12.729Z,13.37
2023-02-02T03:49:15.698Z,15.73
2023-02-02T03:50:17.688Z,18.47
2023-02-02T03:51:19.921Z,17.67
2023-02-02T03:52:21.974Z,12.67
2023-02-02T03:53:23.915Z,12.97
2023-02-02T03:54:25.756Z,13.20
2023-02-02T03:55:27.453Z,13.67
2023-02-02T03:56:29.349Z,11.97
2023-02-02T03:57:30.989Z,13.13
2023-02-02T03:58:38.512Z,16.07
2023-02-02T03:59:40.236Z,16.93
2023-02-02T04:00:42.124Z,14.87
2023-02-02T04:01:44.001Z,14.50
2023-02-02T04:02:48.492Z,15.60
2023-02-02T04:03:50.488Z,12.80
2023-02-02T04:04:52.165Z,15.03
2023-02-02T04:05:53.941Z,14.67
2023-02-02T04:06:56.251Z,17.27
2023-02-02T04:07:58.147Z,14.57
2023-02-02T04:09:00.005Z,13.80
2023-02-02T04:10:01.959Z,14.90
2023-02-02T04:11:03.545Z,14.43
2023-02-02T04:12:05.106Z,16.27
2023-02-02T04:13:09.594Z,17.10
2023-02-02T04:14:11.187Z,14.27
2023-02-02T04:15:13.176Z,12.33
2023-02-02T04:16:17.463Z,13.27
2023-02-02T04:17:21.713Z,16.03
2023-02-02T04:18:23.479Z,15.13
2023-02-02T04:19:25.742Z,15.10
2023-02-02T04:20:31.172Z,10.00
2023-02-02T04:21:32.866Z,21.73
2023-02-02T04:22:35.235Z,16.60
2023-02-02T04:23:36.981Z,16.20
2023-02-02T04:24:38.725Z,14.80
2023-02-02T04:25:40.274Z,20.97
2023-02-02T04:26:42.516Z,15.90
2023-02-02T04:27:44.099Z,14.30
2023-02-02T04:28:45.920Z,10.77
2023-02-02T04:29:50.184Z,12.53
2023-02-02T04:30:53.141Z,11.70
2023-02-02T04:31:58.635Z,13.07
2023-02-02T04:33:03.700Z,17.30
2023-02-02T04:34:19.303Z,14.27
2023-02-02T04:35:21.016Z,12.60
2023-02-02T04:36:23.220Z,12.03
2023-02-02T04:37:25.385Z,15.30
2023-02-02T04:38:27.142Z,17.20
2023-02-02T04:39:31.156Z,14.53
2023-02-02T04:40:35.131Z,15.87
2023-02-02T04:41:38.956Z,12.17
2023-02-02T04:42:40.758Z,20.27
2023-02-02T04:43:46.061Z,14.47
2023-02-02T04:44:47.773Z,20.90
2023-02-02T04:45:55.215Z,13.87
2023-02-02T04:46:57.002Z,16.07
2023-02-02T04:47:58.995Z,10.43
2023-02-02T04:49:03.906Z,12.07
2023-02-02T04:50:09.822Z,17.30
2023-02-02T04:51:13.232Z,14.67
2023-02-02T04:52:14.666Z,10.47
2023-02-02T04:53:16.496Z,16.17
2023-02-02T04:54:18.221Z,12.27
2023-02-02T04:55:20.166Z,10.40
2023-02-02T04:56:25.637Z,9.23
2023-02-02T04:57:33.900Z,10.83
2023-02-02T04:58:35.711Z,13.87
2023-02-02T04:59:37.344Z,10.73
2023-02-02T05:00:47.030Z,15.60
2023-02-02T05:01:53.368Z,12.93
2023-02-02T05:03:05.477Z,15.27
2023-02-02T05:04:11.224Z,14.67
2023-02-02T05:05:14.278Z,13.80
2023-02-02T05:06:16.568Z,13.53
2023-02-02T05:07:18.083Z,11.87
2023-02-02T05:08:20.070Z,14.70
2023-02-02T05:09:21.858Z,13.30
2023-02-02T05:10:23.592Z,12.27
2023-02-02T05:11:25.351Z,14.87
2023-02-02T05:12:27.424Z,12.07
2023-02-02T05:13:32.695Z,12.07
2023-02-02T05:14:37.380Z,12.57
2023-02-02T05:15:39.031Z,14.87
2023-02-02T05:16:40.841Z,11.43
2023-02-02T05:17:43.075Z,13.00
2023-02-02T05:18:49.281Z,13.47
2023-02-02T05:19:53.695Z,13.47
2023-02-02T05:20:55.650Z,12.40
2023-02-02T05:21:57.834Z,11.37
2023-02-02T05:22:59.455Z,12.77
2023-02-02T05:24:05.364Z,16.57
2023-02-02T05:25:12.307Z,11.27
2023-02-02T05:26:18.121Z,9.57
2023-02-02T05:27:19.999Z,12.23
2023-02-02T05:28:22.627Z,9.20
2023-02-02T05:29:25.208Z,14.33
2023-02-02T05:30:27.183Z,12.70
2023-02-02T05:31:32.288Z,12.33
2023-02-02T05:32:34.060Z,12.47
2023-02-02T05:33:36.016Z,12.43
2023-02-02T05:34:41.452Z,10.60
2023-02-02T05:35:46.859Z,12.30
2023-02-02T05:36:49.163Z,11.53
2023-02-02T05:37:53.978Z,15.13
2023-02-02T05:38:55.812Z,13.30
2023-02-02T05:39:57.723Z,11.87
2023-02-02T05:41:01.983Z,9.97
2023-02-02T05:42:06.842Z,7.67
2023-02-02T05:43:08.873Z,9.43
2023-02-02T05:44:17.300Z,12.67
2023-02-02T05:45:18.960Z,14.10
2023-02-02T05:46:20.908Z,15.13
2023-02-02T05:47:23.831Z,10.93
2023-02-02T05:48:32.607Z,10.07
2023-02-02T05:49:48.110Z,9.83
2023-02-02T05:51:19.956Z,14.83
2023-02-02T05:52:23.909Z,11.53
2023-02-02T05:53:29.695Z,14.33
2023-02-02T05:54:32.217Z,13.03
2023-02-02T05:55:33.977Z,15.83
2023-02-02T05:56:41.514Z,11.60
2023-02-02T05:57:43.783Z,10.00
2023-02-02T05:58:49.943Z,10.60
2023-02-02T05:59:51.881Z,14.67
2023-02-02T06:00:56.961Z,12.53
2023-02-02T06:02:09.291Z,12.63
2023-02-02T06:03:13.336Z,12.90
2023-02-02T06:04:19.947Z,12.60
2023-02-02T06:05:27.516Z,13.73
2023-02-02T06:06:29.501Z,12.90
2023-02-02T06:08:02.427Z,11.57
2023-02-02T06:09:07.530Z,13.80
2023-02-02T06:10:09.683Z,11.57
2023-02-02T06:11:15.871Z,16.13
2023-02-02T06:12:20.501Z,14.73
2023-02-02T06:13:22.636Z,12.33
2023-02-02T06:14:25.184Z,13.53
2023-02-02T06:15:38.548Z,13.17
2023-02-02T06:16:40.344Z,11.27
2023-02-02T06:17:41.850Z,10.73
2023-02-02T06:18:43.473Z,10.53
2023-02-02T06:19:45.230Z,11.90
2023-02-02T06:20:47.870Z,12.03
2023-02-02T06:22:16.914Z,7.17
2023-02-02T06:23:21.860Z,11.60
2023-02-02T06:24:41.603Z,14.63
2023-02-02T06:25:43.433Z,14.67
2023-02-02T06:26:50.970Z,8.47
2023-02-02T06:28:04.454Z,12.93
2023-02-02T06:29:06.863Z,9.97
2023-02-02T06:30:12.046Z,12.00
2023-02-02T06:31:22.662Z,6.97
2023-02-02T06:32:35.783Z,12.73
2023-02-02T06:33:40.571Z,9.40
2023-02-02T06:34:42.819Z,9.37
2023-02-02T06:35:44.441Z,12.30
2023-02-02T06:36:46.143Z,18.87
2023-02-02T06:37:48.633Z,11.10
2023-02-02T06:39:05.232Z,9.00
2023-02-02T06:40:07.715Z,7.83
2023-02-02T06:41:09.505Z,9.17
2023-02-02T06:42:20.699Z,12.90
2023-02-02T06:43:23.115Z,11.37
2023-02-02T06:44:24.478Z,14.90
2023-02-02T06:45:27.499Z,12.07
2023-02-02T06:46:29.049Z,11.77
2023-02-02T06:47:35.517Z,10.50
2023-02-02T06:48:36.908Z,16.87
2023-02-02T06:49:38.333Z,12.60
2023-02-02T06:50:40.123Z,12.90
2023-02-02T06:51:45.057Z,7.83
2023-02-02T06:52:50.507Z,8.17
2023-02-02T06:53:59.475Z,10.83
2023-02-02T06:55:19.487Z,11.40
2023-02-02T06:56:23.619Z,9.93
2023-02-02T06:57:24.937Z,10.57
2023-02-02T06:58:26.524Z,12.30
2023-02-02T06:59:33.303Z,10.77
2023-02-02T07:00:38.202Z,13.43
2023-02-02T07:01:39.690Z,13.97
2023-02-02T07:02:47.308Z,11.53
2023-02-02T07:03:50.203Z,10.80
2023-02-02T07:04:54.622Z,9.40
2023-02-02T07:05:56.035Z,11.90
2023-02-02T07:06:57.466Z,13.70
2023-02-02T07:08:04.095Z,8.37
2023-02-02T07:09:05.600Z,13.90
2023-02-02T07:10:07.219Z,13.20
2023-02-02T07:11:15.064Z,9.70
2023-02-02T07:12:19.288Z,10.93
2023-02-02T07:13:21.244Z,10.87
2023-02-02T07:14:22.699Z,11.93
2023-02-02T07:15:24.546Z,14.63
2023-02-02T07:16:28.859Z,12.33
2023-02-02T07:17:34.966Z,17.60
2023-02-02T07:18:45.353Z,11.27
2023-02-02T07:19:46.657Z,12.50
2023-02-02T07:20:48.043Z,11.57
2023-02-02T07:21:54.689Z,10.20
2023-02-02T07:22:56.135Z,11.20
2023-02-02T07:23:57.496Z,10.83
2023-02-02T07:24:59.838Z,10.67
2023-02-02T07:26:05.508Z,12.33
2023-02-02T07:27:06.859Z,11.03
2023-02-02T07:28:08.191Z,11.17
2023-02-02T07:29:12.039Z,10.03
2023-02-02T07:30:14.047Z,18.03
2023-02-02T07:31:17.121Z,15.93
2023-02-02T07:32:18.493Z,10.83
2023-02-02T07:33:26.990Z,11.73
2023-02-02T07:34:32.433Z,11.37
2023-02-02T07:35:33.824Z,15.30
2023-02-02T07:36:35.476Z,10.57
2023-02-02T07:37:39.093Z,16.27
2023-02-02T07:38:41.317Z,9.97
2023-02-02T07:39:43.325Z,16.00
2023-02-02T07:40:45.738Z,12.70
2023-02-02T07:41:47.051Z,13.73
2023-02-02T07:43:00.882Z,12.67
2023-02-02T07:44:02.354Z,13.07
2023-02-02T07:45:27.021Z,11.90
2023-02-02T07:46:26.809Z,11.57
2023-02-02T07:47:28.149Z,14.77
2023-02-02T07:48:30.200Z,17.40
2023-02-02T07:49:31.536Z,12.97
2023-02-02T07:50:32.912Z,10.70
2023-02-02T07:51:34.301Z,13.87
2023-02-02T07:52:35.682Z,11.97
2023-02-02T07:53:37.399Z,12.67
2023-02-02T07:54:38.735Z,12.70
2023-02-02T07:55:40.109Z,11.50
2023-02-02T07:56:41.454Z,11.83
2023-02-02T07:57:42.785Z,12.57
2023-02-02T07:58:44.611Z,15.67
2023-02-02T07:59:45.926Z,9.83
2023-02-02T08:00:47.282Z,12.53
2023-02-02T08:01:48.758Z,18.50
2023-02-02T08:02:50.196Z,15.33
2023-02-02T08:03:53.034Z,11.37
2023-02-02T08:04:54.404Z,12.73
2023-02-02T08:05:56.214Z,9.77
2023-02-02T08:06:57.565Z,11.17
2023-02-02T08:07:59.031Z,11.97
2023-02-02T08:09:00.930Z,12.37
2023-02-02T08:10:02.362Z,13.63
2023-02-02T08:11:03.822Z,11.40
2023-02-02T08:12:05.184Z,10.70
2023-02-02T08:13:06.545Z,14.07
2023-02-02T08:14:07.943Z,12.33
2023-02-02T08:15:09.637Z,13.17
2023-02-02T08:16:12.433Z,11.00
2023-02-02T08:17:13.932Z,11.93
2023-02-02T08:18:15.383Z,12.17
2023-02-02T08:19:16.656Z,10.63
2023-02-02T08:20:18.175Z,10.80
2023-02-02T08:21:19.897Z,14.20
2023-02-02T08:22:21.225Z,12.90
2023-02-02T08:23:23.689Z,13.17
2023-02-02T08:24:25.075Z,13.27
2023-02-02T08:25:26.769Z,9.40
2023-02-02T08:26:29.534Z,10.90
2023-02-02T08:27:31.411Z,11.20
2023-02-02T08:28:32.937Z,12.73
2023-02-02T08:29:35.292Z,17.57
2023-02-02T08:30:36.693Z,13.43
2023-02-02T08:31:42.075Z,10.57
2023-02-02T08:32:43.537Z,13.63
2023-02-02T08:33:44.936Z,13.73
2023-02-02T08:34:48.115Z,11.37
2023-02-02T08:35:49.395Z,13.90
2023-02-02T08:36:50.699Z,13.83
2023-02-02T08:37:51.989Z,10.23
2023-02-02T08:38:53.869Z,15.23
2023-02-02T08:39:55.207Z,12.50
2023-02-02T08:41:03.768Z,13.90
2023-02-02T08:42:05.101Z,12.73
2023-02-02T08:43:06.439Z,10.70
2023-02-02T08:44:13.695Z,14.23
2023-02-02T08:46:03.304Z,16.37
2023-02-02T08:46:36.501Z,16.13
2023-02-02T08:47:37.831Z,13.83
2023-02-02T08:48:39.414Z,15.40
2023-02-02T08:49:42.385Z,16.23
2023-02-02T08:50:43.763Z,12.80
2023-02-02T08:51:45.166Z,13.97
2023-02-02T08:52:47.426Z,15.23
2023-02-02T08:53:48.790Z,19.93
2023-02-02T08:54:50.128Z,17.43
2023-02-02T08:56:17.915Z,15.00
2023-02-02T08:57:19.260Z,9.77
2023-02-02T08:58:20.609Z,21.47
2023-02-02T08:59:21.947Z,14.63
2023-02-02T09:00:23.515Z,13.07
2023-02-02T09:01:27.088Z,14.60
2023-02-02T09:02:28.544Z,12.43
2023-02-02T09:03:29.941Z,12.67
2023-02-02T09:04:31.343Z,8.50
2023-02-02T09:05:32.724Z,12.47
2023-02-02T09:06:35.755Z,11.27
2023-02-02T09:07:37.128Z,12.83
2023-02-02T09:08:38.677Z,10.87
2023-02-02T09:09:40.089Z,13.43
2023-02-02T09:10:41.407Z,11.00
2023-02-02T09:11:43.121Z,10.20
2023-02-02T09:12:44.541Z,13.60
2023-02-02T09:13:47.202Z,12.23
2023-02-02T09:14:48.567Z,13.27
2023-02-02T09:15:50.027Z,13.37
2023-02-02T09:16:51.436Z,13.67
2023-02-02T09:17:53.040Z,10.00
2023-02-02T09:18:54.963Z,10.53
2023-02-02T09:19:56.398Z,9.93
2023-02-02T09:21:01.819Z,10.93
2023-02-02T09:22:03.178Z,12.80
2023-02-02T09:23:04.625Z,8.17
2023-02-02T09:24:10.503Z,14.70
2023-02-02T09:25:11.815Z,13.20
2023-02-02T09:26:17.550Z,12.63
2023-02-02T09:27:19.959Z,11.37
2023-02-02T09:28:21.311Z,15.40
2023-02-02T09:29:22.734Z,11.20
2023-02-02T09:30:24.389Z,11.20
2023-02-02T09:31:26.041Z,10.80
2023-02-02T09:32:27.664Z,11.10
2023-02-02T09:33:29.184Z,8.53
2023-02-02T09:34:30.878Z,10.70
2023-02-02T09:35:32.207Z,13.83
2023-02-02T09:36:34.779Z,12.40
2023-02-02T09:37:36.267Z,11.40
2023-02-02T09:38:38.826Z,10.37
2023-02-02T09:39:40.282Z,9.07
2023-02-02T09:40:41.722Z,11.53
2023-02-02T09:41:55.822Z,11.27
2023-02-02T09:43:01.859Z,12.83
2023-02-02T09:44:15.011Z,11.80
2023-02-02T09:45:23.047Z,13.57
2023-02-02T09:46:28.926Z,9.67
2023-02-02T09:47:38.444Z,9.67
2023-02-02T09:48:46.982Z,9.80
2023-02-02T09:49:54.684Z,9.47
2023-02-02T09:50:59.441Z,13.07
2023-02-02T09:52:03.317Z,10.57
2023-02-02T09:53:16.938Z,12.70
2023-02-02T09:54:20.911Z,10.37
2023-02-02T09:55:23.269Z,10.83
2023-02-02T09:56:27.198Z,12.23
2023-02-02T09:57:36.782Z,9.93
2023-02-02T09:58:54.356Z,15.80
2023-02-02T09:59:56.286Z,9.97
2023-02-02T10:01:13.557Z,12.70
2023-02-02T10:02:22.315Z,12.83
2023-02-02T10:03:36.228Z,13.23
2023-02-02T10:04:40.072Z,10.50
2023-02-02T10:05:47.478Z,9.97
2023-02-02T10:06:53.307Z,8.83
2023-02-02T10:07:57.711Z,14.90
2023-02-02T10:09:06.123Z,9.60
2023-02-02T10:10:17.061Z,10.40
2023-02-02T10:11:27.612Z,11.17
2023-02-02T10:12:40.904Z,10.83
2023-02-02T10:13:43.642Z,8.47
2023-02-02T10:14:46.122Z,10.20
2023-02-02T10:15:54.817Z,9.27
2023-02-02T10:16:57.704Z,7.57
2023-02-02T10:18:04.273Z,7.67
2023-02-02T10:19:11.767Z,10.00
2023-02-02T10:20:13.108Z,11.63
2023-02-02T10:21:20.180Z,10.23
2023-02-02T10:22:23.636Z,12.50
2023-02-02T10:23:29.452Z,12.50
2023-02-02T10:24:31.745Z,7.63
2023-02-02T10:25:35.161Z,7.77
2023-02-02T10:26:38.000Z,9.30
2023-02-02T10:27:40.578Z,11.00
2023-02-02T10:28:43.664Z,9.80
2023-02-02T10:29:50.799Z,7.23
2023-02-02T10:31:01.857Z,11.03
2023-02-02T10:32:14.700Z,10.07
2023-02-02T10:33:34.772Z,7.50
2023-02-02T10:34:40.907Z,8.67
2023-02-02T10:35:49.012Z,11.07
2023-02-02T10:36:58.926Z,11.43
2023-02-02T10:38:09.791Z,10.60
2023-02-02T10:39:20.535Z,7.97
2023-02-02T10:40:35.630Z,9.97
2023-02-02T10:41:36.997Z,12.73
2023-02-02T10:43:16.054Z,8.60
2023-02-02T10:44:22.166Z,8.97
2023-02-02T10:45:23.597Z,8.37
2023-02-02T10:46:27.868Z,10.93
2023-02-02T10:47:30.333Z,11.93
2023-02-02T10:48:35.735Z,8.33
2023-02-02T10:49:37.927Z,7.63
2023-02-02T10:50:42.791Z,9.37
2023-02-02T10:51:55.111Z,12.33
2023-02-02T10:53:00.086Z,11.17
2023-02-02T10:54:05.115Z,9.63
2023-02-02T10:55:18.786Z,10.40
2023-02-02T10:56:41.414Z,9.00
2023-02-02T10:57:45.669Z,8.87
2023-02-02T10:58:53.553Z,12.67
2023-02-02T11:00:10.425Z,10.83
2023-02-02T11:01:12.033Z,9.17
2023-02-02T11:02:20.808Z,9.27
2023-02-02T11:03:23.644Z,9.80
2023-02-02T11:04:43.533Z,9.93
2023-02-02T11:06:03.465Z,7.30
2023-02-02T11:07:04.848Z,5.73
2023-02-02T11:08:16.919Z,7.10
2023-02-02T11:09:20.532Z,9.50
2023-02-02T11:10:23.001Z,9.57
2023-02-02T11:11:27.106Z,10.97
2023-02-02T11:12:32.431Z,9.13
2023-02-02T11:13:37.106Z,9.47
2023-02-02T11:15:07.954Z,7.60
2023-02-02T11:16:15.375Z,6.37
2023-02-02T11:17:23.801Z,7.60
2023-02-02T11:18:29.065Z,9.37
2023-02-02T11:19:31.739Z,9.07
2023-02-02T11:20:34.364Z,9.00
2023-02-02T11:21:37.822Z,10.83
2023-02-02T11:22:39.275Z,9.70
2023-02-02T11:23:40.736Z,8.77
2023-02-02T11:24:46.344Z,6.43
2023-02-02T11:25:57.179Z,5.60
2023-02-02T11:27:06.381Z,10.43
2023-02-02T11:28:19.243Z,8.07
2023-02-02T11:29:32.541Z,7.10
2023-02-02T11:30:35.711Z,10.83
2023-02-02T11:31:37.380Z,9.20
2023-02-02T11:32:38.853Z,8.30
2023-02-02T11:33:40.252Z,7.77
2023-02-02T11:34:41.602Z,8.33
2023-02-02T11:35:52.921Z,10.80
2023-02-02T11:37:10.611Z,9.30
2023-02-02T11:38:16.563Z,7.90
2023-02-02T11:39:21.109Z,8.57
2023-02-02T11:40:24.235Z,8.70
2023-02-02T11:41:25.920Z,7.70
2023-02-02T11:42:28.910Z,7.13
2023-02-02T11:43:30.275Z,12.00
2023-02-02T11:44:35.803Z,10.37
2023-02-02T11:45:39.204Z,8.23
2023-02-02T11:46:40.655Z,10.00
2023-02-02T11:47:42.080Z,5.47
2023-02-02T11:48:48.333Z,7.63
2023-02-02T11:49:51.685Z,6.40
2023-02-02T11:50:55.901Z,11.87
2023-02-02T11:52:04.570Z,8.03
2023-02-02T11:53:06.961Z,9.43
2023-02-02T11:54:14.488Z,8.37
2023-02-02T11:55:18.148Z,8.50
2023-02-02T11:56:21.453Z,8.17
2023-02-02T11:57:23.795Z,10.87
2023-02-02T11:58:28.818Z,9.53
2023-02-02T11:59:40.117Z,7.90
2023-02-02T12:00:55.258Z,10.77
2023-02-02T12:02:29.038Z,5.37
2023-02-02T12:03:32.096Z,9.27
2023-02-02T12:04:33.500Z,8.93
2023-02-02T12:05:36.252Z,6.37
2023-02-02T12:06:38.301Z,9.80
2023-02-02T12:07:40.082Z,8.13
2023-02-02T12:08:41.423Z,6.83
2023-02-02T12:09:42.759Z,6.97
2023-02-02T12:10:44.087Z,8.27
2023-02-02T12:12:02.071Z,7.87
2023-02-02T12:13:09.721Z,8.17
2023-02-02T12:14:20.235Z,9.53
2023-02-02T12:15:48.885Z,7.30
2023-02-02T12:16:53.686Z,9.53
2023-02-02T12:18:10.107Z,6.37
2023-02-02T12:19:33.867Z,5.00
2023-02-02T12:20:35.188Z,5.50
2023-02-02T12:21:53.015Z,6.23
2023-02-02T12:23:17.101Z,5.07
2023-02-02T12:24:29.686Z,5.47
2023-02-02T12:25:37.269Z,10.07
2023-02-02T12:26:40.227Z,9.00
2023-02-02T12:27:55.801Z,6.83
2023-02-02T12:29:03.663Z,7.00
2023-02-02T12:30:17.423Z,6.77
2023-02-02T12:31:21.938Z,8.43
2023-02-02T12:32:44.394Z,6.07
2023-02-02T12:33:49.628Z,6.73
2023-02-02T12:34:57.445Z,6.83
2023-02-02T12:36:10.383Z,6.10
2023-02-02T12:37:32.518Z,6.20
2023-02-02T12:38:46.788Z,6.43
2023-02-02T12:39:48.175Z,10.43
2023-02-02T12:40:55.710Z,9.27
2023-02-02T12:41:59.926Z,5.30
2023-02-02T12:43:13.181Z,6.40
2023-02-02T12:44:40.141Z,6.20
2023-02-02T12:45:56.812Z,6.07
2023-02-02T12:47:08.764Z,6.63
2023-02-02T12:48:15.272Z,6.50
2023-02-02T12:49:23.904Z,9.53
2023-02-02T12:50:54.702Z,6.30
2023-02-02T12:52:12.638Z,3.60
2023-02-02T12:53:20.234Z,7.90
2023-02-02T12:54:46.758Z,8.47
2023-02-02T12:55:59.778Z,6.83
2023-02-02T12:57:03.890Z,5.93
2023-02-02T12:58:20.579Z,7.53
2023-02-02T12:59:33.770Z,8.07
2023-02-02T13:00:57.312Z,7.37
2023-02-02T13:01:58.835Z,7.73
2023-02-02T13:03:21.409Z,6.90
2023-02-02T13:04:25.851Z,4.57
2023-02-02T13:05:44.952Z,11.10
2023-02-02T13:06:46.262Z,7.33
2023-02-02T13:07:52.697Z,5.93
2023-02-02T13:09:01.882Z,9.73
2023-02-02T13:10:22.123Z,7.93
2023-02-02T13:11:45.820Z,5.53
2023-02-02T13:13:07.020Z,7.40
2023-02-02T13:14:15.880Z,6.33
2023-02-02T13:15:19.057Z,5.17
2023-02-02T13:16:20.709Z,7.87
2023-02-02T13:17:28.898Z,7.00
2023-02-02T13:18:34.423Z,4.43
2023-02-02T13:19:38.428Z,7.33
2023-02-02T13:20:41.949Z,8.03
2023-02-02T13:21:44.359Z,7.37
2023-02-02T13:22:47.486Z,8.00
2023-02-02T13:23:50.241Z,5.20
2023-02-02T13:24:53.036Z,7.10
2023-02-02T13:26:13.302Z,6.93
2023-02-02T13:27:17.766Z,5.37
2023-02-02T13:28:38.142Z,9.27
2023-02-02T13:29:48.427Z,9.43
2023-02-02T13:30:50.783Z,5.53
2023-02-02T13:32:01.281Z,9.60
2023-02-02T13:33:05.699Z,8.10
2023-02-02T13:34:15.561Z,6.03
2023-02-02T13:35:25.326Z,7.33
2023-02-02T13:36:29.970Z,8.40
2023-02-02T13:37:37.497Z,4.37
2023-02-02T13:38:42.203Z,6.73
2023-02-02T13:39:54.795Z,8.17
2023-02-02T13:40:59.181Z,8.50
2023-02-02T13:42:02.847Z,7.57
2023-02-02T13:43:04.520Z,3.83
2023-02-02T13:44:18.161Z,10.07
2023-02-02T13:45:33.618Z,6.47
2023-02-02T13:46:37.861Z,6.07
2023-02-02T13:47:52.770Z,5.80
2023-02-02T13:49:03.140Z,7.77
2023-02-02T13:50:07.342Z,7.47
2023-02-02T13:51:17.542Z,7.63
2023-02-02T13:52:18.928Z,7.30
2023-02-02T13:53:35.577Z,6.00
2023-02-02T13:54:55.941Z,5.60
2023-02-02T13:56:08.939Z,7.13
2023-02-02T13:57:18.717Z,5.87
2023-02-02T13:58:25.901Z,13.03
2023-02-02T13:59:46.032Z,7.33
2023-02-02T14:00:49.551Z,5.50
2023-02-02T14:01:51.044Z,6.37
2023-02-02T14:02:56.846Z,9.80
2023-02-02T14:04:00.392Z,6.20
2023-02-02T14:05:03.753Z,6.33
2023-02-02T14:06:07.124Z,7.13
2023-02-02T14:08:21.456Z,7.67
2023-02-02T14:09:24.931Z,7.30
2023-02-02T14:10:28.151Z,6.67
2023-02-02T14:11:33.951Z,6.87
2023-02-02T14:12:35.736Z,6.47
2023-02-02T14:14:03.575Z,5.13